sensor_id;sensor_type;location;lat;lon;timestamp;temperature;humidity
39067;DHT22;24821;51.988;6.020;2024-01-06T00:00:18;7.50;99.90
39067;DHT22;24821;51.988;6.020;2024-01-06T00:02:44;7.50;99.90
39067;DHT22;24821;51.988;6.020;2024-01-06T00:05:09;7.50;99.90
39067;DHT22;24821;51.988;6.020;2024-01-06T00:07:35;7.50;99.90
39067;DHT22;24821;51.988;6.020;2024-01-06T00:10:00;7.40;99.90
39067;DHT22;24821;51.988;6.020;2024-01-06T00:12:25;7.40;99.90
39067;DHT22;24821;51.988;6.020;2024-01-06T00:14:51;7.40;99.90
39067;DHT22;24821;51.988;6.020;2024-01-06T00:17:16;7.30;99.90
39067;DHT22;24821;51.988;6.020;2024-01-06T00:19:42;7.30;99.90
39067;DHT22;24821;51.988;6.020;2024-01-06T00:22:08;7.30;99.90
39067;DHT22;24821;51.988;6.020;2024-01-06T00:24:33;7.30;99.90
39067;DHT22;24821;51.988;6.020;2024-01-06T00:26:58;7.20;99.90
39067;DHT22;24821;51.988;6.020;2024-01-06T00:29:24;7.20;99.90
39067;DHT22;24821;51.988;6.020;2024-01-06T00:31:49;7.10;99.90
39067;DHT22;24821;51.988;6.020;2024-01-06T00:34:15;7.10;99.90
39067;DHT22;24821;51.988;6.020;2024-01-06T00:36:41;7.00;99.90
39067;DHT22;24821;51.988;6.020;2024-01-06T00:39:06;6.90;99.90
39067;DHT22;24821;51.988;6.020;2024-01-06T00:41:31;6.90;99.90
39067;DHT22;24821;51.988;6.020;2024-01-06T00:43:57;6.80;99.90
39067;DHT22;24821;51.988;6.020;2024-01-06T00:46:23;6.80;99.90
39067;DHT22;24821;51.988;6.020;2024-01-06T00:48:48;6.70;99.90
39067;DHT22;24821;51.988;6.020;2024-01-06T00:51:13;6.70;99.90
39067;DHT22;24821;51.988;6.020;2024-01-06T00:53:39;6.70;99.90
39067;DHT22;24821;51.988;6.020;2024-01-06T00:56:04;6.70;99.90
39067;DHT22;24821;51.988;6.020;2024-01-06T00:58:30;6.70;99.90
39067;DHT22;24821;51.988;6.020;2024-01-06T01:00:55;6.70;99.90
39067;DHT22;24821;51.988;6.020;2024-01-06T01:03:21;6.70;99.90
39067;DHT22;24821;51.988;6.020;2024-01-06T01:05:46;6.70;99.90
39067;DHT22;24821;51.988;6.020;2024-01-06T01:08:12;6.70;99.90
39067;DHT22;24821;51.988;6.020;2024-01-06T01:10:37;6.70;99.90
39067;DHT22;24821;51.988;6.020;2024-01-06T01:13:03;6.70;99.90
39067;DHT22;24821;51.988;6.020;2024-01-06T01:15:29;6.80;99.90
39067;DHT22;24821;51.988;6.020;2024-01-06T01:17:54;6.80;99.90
39067;DHT22;24821;51.988;6.020;2024-01-06T01:20:20;6.80;99.90
39067;DHT22;24821;51.988;6.020;2024-01-06T01:22:45;6.80;99.90
39067;DHT22;24821;51.988;6.020;2024-01-06T01:25:10;6.80;99.90
39067;DHT22;24821;51.988;6.020;2024-01-06T01:27:38;6.80;99.90
39067;DHT22;24821;51.988;6.020;2024-01-06T01:30:03;6.90;99.90
39067;DHT22;24821;51.988;6.020;2024-01-06T01:32:29;6.90;99.90
39067;DHT22;24821;51.988;6.020;2024-01-06T01:34:54;6.80;99.90
39067;DHT22;24821;51.988;6.020;2024-01-06T01:37:20;6.90;99.90
39067;DHT22;24821;51.988;6.020;2024-01-06T01:39:45;6.80;99.90
39067;DHT22;24821;51.988;6.020;2024-01-06T01:42:11;6.80;99.90
39067;DHT22;24821;51.988;6.020;2024-01-06T01:44:36;6.80;99.90
39067;DHT22;24821;51.988;6.020;2024-01-06T01:47:03;6.80;99.90
39067;DHT22;24821;51.988;6.020;2024-01-06T01:49:29;6.80;99.90
39067;DHT22;24821;51.988;6.020;2024-01-06T01:51:55;6.80;99.90
39067;DHT22;24821;51.988;6.020;2024-01-06T01:54:20;6.80;99.90
39067;DHT22;24821;51.988;6.020;2024-01-06T01:56:46;6.90;99.90
39067;DHT22;24821;51.988;6.020;2024-01-06T01:59:12;6.90;99.90
39067;DHT22;24821;51.988;6.020;2024-01-06T02:01:39;6.90;99.90
39067;DHT22;24821;51.988;6.020;2024-01-06T02:04:04;6.80;99.90
39067;DHT22;24821;51.988;6.020;2024-01-06T02:06:30;6.80;99.90
39067;DHT22;24821;51.988;6.020;2024-01-06T02:08:55;6.80;99.90
39067;DHT22;24821;51.988;6.020;2024-01-06T02:11:21;6.80;99.90
39067;DHT22;24821;51.988;6.020;2024-01-06T02:13:49;6.80;99.90
39067;DHT22;24821;51.988;6.020;2024-01-06T02:16:14;6.80;99.90
39067;DHT22;24821;51.988;6.020;2024-01-06T02:18:40;6.80;99.90
39067;DHT22;24821;51.988;6.020;2024-01-06T02:21:05;6.80;99.90
39067;DHT22;24821;51.988;6.020;2024-01-06T02:23:33;6.80;99.90
39067;DHT22;24821;51.988;6.020;2024-01-06T02:25:59;6.80;99.90
39067;DHT22;24821;51.988;6.020;2024-01-06T02:28:24;6.80;99.90
39067;DHT22;24821;51.988;6.020;2024-01-06T02:30:50;6.70;99.90
39067;DHT22;24821;51.988;6.020;2024-01-06T02:33:16;6.70;99.90
39067;DHT22;24821;51.988;6.020;2024-01-06T02:35:42;6.70;99.90
39067;DHT22;24821;51.988;6.020;2024-01-06T02:38:07;6.70;99.90
39067;DHT22;24821;51.988;6.020;2024-01-06T02:40:34;6.60;99.90
39067;DHT22;24821;51.988;6.020;2024-01-06T02:43:00;6.60;99.90
39067;DHT22;24821;51.988;6.020;2024-01-06T02:45:25;6.60;99.90
39067;DHT22;24821;51.988;6.020;2024-01-06T02:47:51;6.60;99.90
39067;DHT22;24821;51.988;6.020;2024-01-06T02:50:16;6.50;99.90
39067;DHT22;24821;51.988;6.020;2024-01-06T02:52:42;6.50;99.90
39067;DHT22;24821;51.988;6.020;2024-01-06T02:55:07;6.50;99.90
39067;DHT22;24821;51.988;6.020;2024-01-06T02:57:33;6.50;99.90
39067;DHT22;24821;51.988;6.020;2024-01-06T02:59:58;6.50;99.90
39067;DHT22;24821;51.988;6.020;2024-01-06T03:02:24;6.40;99.90
39067;DHT22;24821;51.988;6.020;2024-01-06T03:04:49;6.40;99.90
39067;DHT22;24821;51.988;6.020;2024-01-06T03:07:15;6.40;99.90
39067;DHT22;24821;51.988;6.020;2024-01-06T03:09:41;6.40;99.90
39067;DHT22;24821;51.988;6.020;2024-01-06T03:12:06;6.50;99.90
39067;DHT22;24821;51.988;6.020;2024-01-06T03:14:35;6.50;99.90
39067;DHT22;24821;51.988;6.020;2024-01-06T03:17:00;6.50;99.90
39067;DHT22;24821;51.988;6.020;2024-01-06T03:19:26;6.50;99.90
39067;DHT22;24821;51.988;6.020;2024-01-06T03:21:52;6.50;99.90
39067;DHT22;24821;51.988;6.020;2024-01-06T03:24:18;6.50;99.90
39067;DHT22;24821;51.988;6.020;2024-01-06T03:26:44;6.50;99.90
39067;DHT22;24821;51.988;6.020;2024-01-06T03:29:09;6.40;99.90
39067;DHT22;24821;51.988;6.020;2024-01-06T03:31:34;6.40;99.90
39067;DHT22;24821;51.988;6.020;2024-01-06T03:34:00;6.40;99.90
39067;DHT22;24821;51.988;6.020;2024-01-06T03:36:25;6.40;99.90
39067;DHT22;24821;51.988;6.020;2024-01-06T03:38:51;6.40;99.90
39067;DHT22;24821;51.988;6.020;2024-01-06T03:41:16;6.50;99.90
39067;DHT22;24821;51.988;6.020;2024-01-06T03:43:42;6.40;99.90
39067;DHT22;24821;51.988;6.020;2024-01-06T03:46:07;6.40;99.90
39067;DHT22;24821;51.988;6.020;2024-01-06T03:48:33;6.40;99.90
39067;DHT22;24821;51.988;6.020;2024-01-06T03:50:59;6.40;99.90
39067;DHT22;24821;51.988;6.020;2024-01-06T03:53:24;6.40;99.90
39067;DHT22;24821;51.988;6.020;2024-01-06T03:55:50;6.40;99.90
39067;DHT22;24821;51.988;6.020;2024-01-06T03:58:15;6.30;99.90
39067;DHT22;24821;51.988;6.020;2024-01-06T04:00:41;6.30;99.90
39067;DHT22;24821;51.988;6.020;2024-01-06T04:03:06;6.30;99.90
39067;DHT22;24821;51.988;6.020;2024-01-06T04:05:32;6.30;99.90
39067;DHT22;24821;51.988;6.020;2024-01-06T04:07:58;6.20;99.90
39067;DHT22;24821;51.988;6.020;2024-01-06T04:10:23;6.20;99.90
39067;DHT22;24821;51.988;6.020;2024-01-06T04:12:49;6.20;99.90
39067;DHT22;24821;51.988;6.020;2024-01-06T04:15:14;6.20;99.90
39067;DHT22;24821;51.988;6.020;2024-01-06T04:17:40;6.20;99.90
39067;DHT22;24821;51.988;6.020;2024-01-06T04:20:05;6.20;99.90
39067;DHT22;24821;51.988;6.020;2024-01-06T04:22:31;6.10;99.90
39067;DHT22;24821;51.988;6.020;2024-01-06T04:24:56;6.10;99.90
39067;DHT22;24821;51.988;6.020;2024-01-06T04:27:22;6.10;99.90
39067;DHT22;24821;51.988;6.020;2024-01-06T04:29:47;6.00;99.90
39067;DHT22;24821;51.988;6.020;2024-01-06T04:32:12;6.10;99.90
39067;DHT22;24821;51.988;6.020;2024-01-06T04:34:38;6.00;99.90
39067;DHT22;24821;51.988;6.020;2024-01-06T04:37:03;6.00;99.90
39067;DHT22;24821;51.988;6.020;2024-01-06T04:39:29;6.00;99.90
39067;DHT22;24821;51.988;6.020;2024-01-06T04:41:54;6.00;99.90
39067;DHT22;24821;51.988;6.020;2024-01-06T04:44:20;6.00;99.90
39067;DHT22;24821;51.988;6.020;2024-01-06T04:46:46;5.90;99.90
39067;DHT22;24821;51.988;6.020;2024-01-06T04:49:11;6.00;99.90
39067;DHT22;24821;51.988;6.020;2024-01-06T04:51:37;6.00;99.90
39067;DHT22;24821;51.988;6.020;2024-01-06T04:54:02;6.00;99.90
39067;DHT22;24821;51.988;6.020;2024-01-06T04:56:27;6.00;99.90
39067;DHT22;24821;51.988;6.020;2024-01-06T04:58:53;5.90;99.90
39067;DHT22;24821;51.988;6.020;2024-01-06T05:01:18;5.90;99.90
39067;DHT22;24821;51.988;6.020;2024-01-06T05:03:44;5.90;99.90
39067;DHT22;24821;51.988;6.020;2024-01-06T05:06:10;5.80;99.90
39067;DHT22;24821;51.988;6.020;2024-01-06T05:08:35;5.80;99.90
39067;DHT22;24821;51.988;6.020;2024-01-06T05:11:04;5.70;99.90
39067;DHT22;24821;51.988;6.020;2024-01-06T05:13:30;5.70;99.90
39067;DHT22;24821;51.988;6.020;2024-01-06T05:15:55;5.70;99.90
39067;DHT22;24821;51.988;6.020;2024-01-06T05:18:21;5.70;99.90
39067;DHT22;24821;51.988;6.020;2024-01-06T05:20:46;5.70;99.90
39067;DHT22;24821;51.988;6.020;2024-01-06T05:23:12;5.60;99.90
39067;DHT22;24821;51.988;6.020;2024-01-06T05:25:37;5.50;99.90
39067;DHT22;24821;51.988;6.020;2024-01-06T05:28:03;5.50;99.90
39067;DHT22;24821;51.988;6.020;2024-01-06T05:30:28;5.50;99.90
39067;DHT22;24821;51.988;6.020;2024-01-06T05:32:54;5.50;99.90
39067;DHT22;24821;51.988;6.020;2024-01-06T05:35:19;5.50;99.90
39067;DHT22;24821;51.988;6.020;2024-01-06T05:37:45;5.50;99.90
39067;DHT22;24821;51.988;6.020;2024-01-06T05:40:10;5.50;99.90
39067;DHT22;24821;51.988;6.020;2024-01-06T05:42:36;5.40;99.90
39067;DHT22;24821;51.988;6.020;2024-01-06T05:45:02;5.40;99.90
39067;DHT22;24821;51.988;6.020;2024-01-06T05:47:27;5.40;99.90
39067;DHT22;24821;51.988;6.020;2024-01-06T05:49:53;5.30;99.90
39067;DHT22;24821;51.988;6.020;2024-01-06T05:52:18;5.30;99.90
39067;DHT22;24821;51.988;6.020;2024-01-06T05:54:44;5.20;99.90
39067;DHT22;24821;51.988;6.020;2024-01-06T05:57:09;5.20;99.90
39067;DHT22;24821;51.988;6.020;2024-01-06T05:59:35;5.20;99.90
39067;DHT22;24821;51.988;6.020;2024-01-06T06:02:00;5.20;99.90
39067;DHT22;24821;51.988;6.020;2024-01-06T06:04:26;5.20;99.90
39067;DHT22;24821;51.988;6.020;2024-01-06T06:06:51;5.20;99.90
39067;DHT22;24821;51.988;6.020;2024-01-06T06:09:17;5.20;99.90
39067;DHT22;24821;51.988;6.020;2024-01-06T06:11:42;5.30;99.90
39067;DHT22;24821;51.988;6.020;2024-01-06T06:14:10;5.20;99.90
39067;DHT22;24821;51.988;6.020;2024-01-06T06:16:35;5.30;99.90
39067;DHT22;24821;51.988;6.020;2024-01-06T06:19:01;5.30;99.90
39067;DHT22;24821;51.988;6.020;2024-01-06T06:21:26;5.30;99.90
39067;DHT22;24821;51.988;6.020;2024-01-06T06:23:52;5.30;99.90
39067;DHT22;24821;51.988;6.020;2024-01-06T06:26:17;5.20;99.90
39067;DHT22;24821;51.988;6.020;2024-01-06T06:28:43;5.20;99.90
39067;DHT22;24821;51.988;6.020;2024-01-06T06:31:08;5.10;99.90
39067;DHT22;24821;51.988;6.020;2024-01-06T06:33:34;5.10;99.90
39067;DHT22;24821;51.988;6.020;2024-01-06T06:35:59;5.00;99.90
39067;DHT22;24821;51.988;6.020;2024-01-06T06:38:25;5.10;99.90
39067;DHT22;24821;51.988;6.020;2024-01-06T06:40:50;5.10;99.90
39067;DHT22;24821;51.988;6.020;2024-01-06T06:43:16;5.10;99.90
39067;DHT22;24821;51.988;6.020;2024-01-06T06:45:41;5.10;99.90
39067;DHT22;24821;51.988;6.020;2024-01-06T06:48:07;5.00;99.90
39067;DHT22;24821;51.988;6.020;2024-01-06T06:50:32;5.00;99.90
39067;DHT22;24821;51.988;6.020;2024-01-06T06:52:58;5.00;99.90
39067;DHT22;24821;51.988;6.020;2024-01-06T06:55:24;5.00;99.90
39067;DHT22;24821;51.988;6.020;2024-01-06T06:57:49;5.00;99.90
39067;DHT22;24821;51.988;6.020;2024-01-06T07:00:15;5.00;99.90
39067;DHT22;24821;51.988;6.020;2024-01-06T07:02:41;4.90;99.90
39067;DHT22;24821;51.988;6.020;2024-01-06T07:05:07;4.90;99.90
39067;DHT22;24821;51.988;6.020;2024-01-06T07:07:33;4.90;99.90
39067;DHT22;24821;51.988;6.020;2024-01-06T07:10:00;5.00;99.90
39067;DHT22;24821;51.988;6.020;2024-01-06T07:12:25;4.90;99.90
39067;DHT22;24821;51.988;6.020;2024-01-06T07:14:52;4.90;99.90
39067;DHT22;24821;51.988;6.020;2024-01-06T07:17:18;4.90;99.90
39067;DHT22;24821;51.988;6.020;2024-01-06T07:19:43;4.90;99.90
39067;DHT22;24821;51.988;6.020;2024-01-06T07:22:08;4.90;99.90
39067;DHT22;24821;51.988;6.020;2024-01-06T07:24:34;4.90;99.90
39067;DHT22;24821;51.988;6.020;2024-01-06T07:27:01;5.00;99.90
39067;DHT22;24821;51.988;6.020;2024-01-06T07:29:28;5.00;99.90
39067;DHT22;24821;51.988;6.020;2024-01-06T07:31:54;5.00;99.90
39067;DHT22;24821;51.988;6.020;2024-01-06T07:34:19;4.90;99.90
39067;DHT22;24821;51.988;6.020;2024-01-06T07:36:45;4.90;99.90
39067;DHT22;24821;51.988;6.020;2024-01-06T07:39:10;4.90;99.90
39067;DHT22;24821;51.988;6.020;2024-01-06T07:41:35;4.80;99.90
39067;DHT22;24821;51.988;6.020;2024-01-06T07:44:01;4.80;99.90
39067;DHT22;24821;51.988;6.020;2024-01-06T07:46:28;4.80;99.90
39067;DHT22;24821;51.988;6.020;2024-01-06T07:48:53;4.80;99.90
39067;DHT22;24821;51.988;6.020;2024-01-06T07:51:19;4.70;99.90
39067;DHT22;24821;51.988;6.020;2024-01-06T07:53:44;4.70;99.90
39067;DHT22;24821;51.988;6.020;2024-01-06T07:56:10;4.70;99.90
39067;DHT22;24821;51.988;6.020;2024-01-06T07:58:35;4.70;99.90
39067;DHT22;24821;51.988;6.020;2024-01-06T08:01:01;4.70;99.90
39067;DHT22;24821;51.988;6.020;2024-01-06T08:03:28;4.70;99.90
39067;DHT22;24821;51.988;6.020;2024-01-06T08:05:54;4.70;99.90
39067;DHT22;24821;51.988;6.020;2024-01-06T08:08:19;4.70;99.90
39067;DHT22;24821;51.988;6.020;2024-01-06T08:10:45;4.70;99.90
39067;DHT22;24821;51.988;6.020;2024-01-06T08:13:11;4.70;99.90
39067;DHT22;24821;51.988;6.020;2024-01-06T08:15:36;4.70;99.90
39067;DHT22;24821;51.988;6.020;2024-01-06T08:18:02;4.60;99.90
39067;DHT22;24821;51.988;6.020;2024-01-06T08:20:28;4.60;99.90
39067;DHT22;24821;51.988;6.020;2024-01-06T08:22:54;4.70;99.90
39067;DHT22;24821;51.988;6.020;2024-01-06T08:25:20;4.60;99.90
39067;DHT22;24821;51.988;6.020;2024-01-06T08:27:45;4.60;99.90
39067;DHT22;24821;51.988;6.020;2024-01-06T08:30:11;4.60;99.90
39067;DHT22;24821;51.988;6.020;2024-01-06T08:32:37;4.50;99.90
39067;DHT22;24821;51.988;6.020;2024-01-06T08:35:03;4.50;99.90
39067;DHT22;24821;51.988;6.020;2024-01-06T08:37:29;4.40;99.90
39067;DHT22;24821;51.988;6.020;2024-01-06T08:39:54;4.40;99.90
39067;DHT22;24821;51.988;6.020;2024-01-06T08:42:20;4.40;99.90
39067;DHT22;24821;51.988;6.020;2024-01-06T08:44:45;4.40;99.90
39067;DHT22;24821;51.988;6.020;2024-01-06T08:47:11;4.30;99.90
39067;DHT22;24821;51.988;6.020;2024-01-06T08:49:37;4.30;99.90
39067;DHT22;24821;51.988;6.020;2024-01-06T08:52:03;4.30;99.90
39067;DHT22;24821;51.988;6.020;2024-01-06T08:54:28;4.30;99.90
39067;DHT22;24821;51.988;6.020;2024-01-06T08:56:54;4.40;99.90
39067;DHT22;24821;51.988;6.020;2024-01-06T08:59:20;4.30;99.90
39067;DHT22;24821;51.988;6.020;2024-01-06T09:01:45;4.30;99.90
39067;DHT22;24821;51.988;6.020;2024-01-06T09:04:11;4.30;99.90
39067;DHT22;24821;51.988;6.020;2024-01-06T09:06:38;4.30;99.90
39067;DHT22;24821;51.988;6.020;2024-01-06T09:09:03;4.30;99.90
39067;DHT22;24821;51.988;6.020;2024-01-06T09:11:29;4.30;99.90
39067;DHT22;24821;51.988;6.020;2024-01-06T09:13:54;4.30;99.90
39067;DHT22;24821;51.988;6.020;2024-01-06T09:16:20;4.30;99.90
39067;DHT22;24821;51.988;6.020;2024-01-06T09:18:45;4.30;99.90
39067;DHT22;24821;51.988;6.020;2024-01-06T09:21:10;4.40;99.90
39067;DHT22;24821;51.988;6.020;2024-01-06T09:23:36;4.40;99.90
39067;DHT22;24821;51.988;6.020;2024-01-06T09:26:01;4.40;99.90
39067;DHT22;24821;51.988;6.020;2024-01-06T09:28:28;4.30;99.90
39067;DHT22;24821;51.988;6.020;2024-01-06T09:30:53;4.30;99.90
39067;DHT22;24821;51.988;6.020;2024-01-06T09:33:21;4.40;99.90
39067;DHT22;24821;51.988;6.020;2024-01-06T09:35:47;4.30;99.90
39067;DHT22;24821;51.988;6.020;2024-01-06T09:38:12;4.30;99.90
39067;DHT22;24821;51.988;6.020;2024-01-06T09:40:41;4.30;99.90
39067;DHT22;24821;51.988;6.020;2024-01-06T09:43:08;4.30;99.90
39067;DHT22;24821;51.988;6.020;2024-01-06T09:45:34;4.30;99.90
39067;DHT22;24821;51.988;6.020;2024-01-06T09:47:59;4.20;99.90
39067;DHT22;24821;51.988;6.020;2024-01-06T09:50:29;4.20;99.90
39067;DHT22;24821;51.988;6.020;2024-01-06T09:52:55;4.20;99.90
39067;DHT22;24821;51.988;6.020;2024-01-06T09:55:29;4.20;99.90
39067;DHT22;24821;51.988;6.020;2024-01-06T09:57:54;4.20;99.90
39067;DHT22;24821;51.988;6.020;2024-01-06T10:00:20;4.20;99.90
39067;DHT22;24821;51.988;6.020;2024-01-06T10:02:49;4.20;99.90
39067;DHT22;24821;51.988;6.020;2024-01-06T10:05:16;4.20;99.90
39067;DHT22;24821;51.988;6.020;2024-01-06T10:07:45;4.20;99.90
39067;DHT22;24821;51.988;6.020;2024-01-06T10:10:10;4.10;99.90
39067;DHT22;24821;51.988;6.020;2024-01-06T10:12:37;4.10;99.90
39067;DHT22;24821;51.988;6.020;2024-01-06T10:15:03;4.10;99.90
39067;DHT22;24821;51.988;6.020;2024-01-06T10:17:28;4.10;99.90
39067;DHT22;24821;51.988;6.020;2024-01-06T10:19:53;4.10;99.90
39067;DHT22;24821;51.988;6.020;2024-01-06T10:22:19;4.10;99.90
39067;DHT22;24821;51.988;6.020;2024-01-06T10:24:45;4.10;99.90
39067;DHT22;24821;51.988;6.020;2024-01-06T10:27:11;4.10;99.90
39067;DHT22;24821;51.988;6.020;2024-01-06T10:29:36;4.20;99.90
39067;DHT22;24821;51.988;6.020;2024-01-06T10:32:01;4.20;99.90
39067;DHT22;24821;51.988;6.020;2024-01-06T10:34:28;4.20;99.90
39067;DHT22;24821;51.988;6.020;2024-01-06T10:36:54;4.20;99.90
39067;DHT22;24821;51.988;6.020;2024-01-06T10:39:20;4.20;99.90
39067;DHT22;24821;51.988;6.020;2024-01-06T10:41:48;4.20;99.90
39067;DHT22;24821;51.988;6.020;2024-01-06T10:44:14;4.20;99.90
39067;DHT22;24821;51.988;6.020;2024-01-06T10:46:40;4.20;99.90
39067;DHT22;24821;51.988;6.020;2024-01-06T10:49:06;4.20;99.90
39067;DHT22;24821;51.988;6.020;2024-01-06T10:51:36;4.30;99.90
39067;DHT22;24821;51.988;6.020;2024-01-06T10:54:02;4.20;99.90
39067;DHT22;24821;51.988;6.020;2024-01-06T10:56:28;4.20;99.90
39067;DHT22;24821;51.988;6.020;2024-01-06T10:58:54;4.20;99.90
39067;DHT22;24821;51.988;6.020;2024-01-06T11:01:22;4.20;99.90
39067;DHT22;24821;51.988;6.020;2024-01-06T11:03:49;4.20;99.90
39067;DHT22;24821;51.988;6.020;2024-01-06T11:06:15;4.20;99.90
39067;DHT22;24821;51.988;6.020;2024-01-06T11:11:26;4.20;99.90
39067;DHT22;24821;51.988;6.020;2024-01-06T11:13:52;4.20;99.90
39067;DHT22;24821;51.988;6.020;2024-01-06T11:16:33;4.20;99.90
39067;DHT22;24821;51.988;6.020;2024-01-06T11:19:00;4.10;99.90
39067;DHT22;24821;51.988;6.020;2024-01-06T11:21:26;4.10;99.90
39067;DHT22;24821;51.988;6.020;2024-01-06T11:24:07;4.10;99.90
39067;DHT22;24821;51.988;6.020;2024-01-06T11:26:34;4.10;99.90
39067;DHT22;24821;51.988;6.020;2024-01-06T11:29:03;4.10;99.90
39067;DHT22;24821;51.988;6.020;2024-01-06T11:31:32;4.20;99.90
39067;DHT22;24821;51.988;6.020;2024-01-06T11:33:58;4.20;99.90
39067;DHT22;24821;51.988;6.020;2024-01-06T11:36:36;4.20;99.90
39067;DHT22;24821;51.988;6.020;2024-01-06T11:39:02;4.20;99.90
39067;DHT22;24821;51.988;6.020;2024-01-06T11:41:49;4.20;99.90
39067;DHT22;24821;51.988;6.020;2024-01-06T11:44:17;4.20;99.90
39067;DHT22;24821;51.988;6.020;2024-01-06T11:46:43;4.20;99.90
39067;DHT22;24821;51.988;6.020;2024-01-06T11:49:09;4.20;99.90
39067;DHT22;24821;51.988;6.020;2024-01-06T11:51:35;4.30;99.90
39067;DHT22;24821;51.988;6.020;2024-01-06T11:54:00;4.20;99.90
39067;DHT22;24821;51.988;6.020;2024-01-06T11:56:26;4.20;99.90
39067;DHT22;24821;51.988;6.020;2024-01-06T11:58:51;4.20;99.90
39067;DHT22;24821;51.988;6.020;2024-01-06T12:01:17;4.20;99.90
39067;DHT22;24821;51.988;6.020;2024-01-06T12:03:42;4.20;99.90
39067;DHT22;24821;51.988;6.020;2024-01-06T12:06:08;4.10;99.90
39067;DHT22;24821;51.988;6.020;2024-01-06T12:08:33;4.10;99.90
39067;DHT22;24821;51.988;6.020;2024-01-06T12:11:02;4.10;99.90
39067;DHT22;24821;51.988;6.020;2024-01-06T12:13:28;4.10;99.90
39067;DHT22;24821;51.988;6.020;2024-01-06T12:15:53;4.10;99.90
39067;DHT22;24821;51.988;6.020;2024-01-06T12:18:20;4.10;99.90
39067;DHT22;24821;51.988;6.020;2024-01-06T12:20:45;4.10;99.90
39067;DHT22;24821;51.988;6.020;2024-01-06T12:23:11;4.20;99.90
39067;DHT22;24821;51.988;6.020;2024-01-06T12:25:36;4.20;99.90
39067;DHT22;24821;51.988;6.020;2024-01-06T12:28:02;4.20;99.90
39067;DHT22;24821;51.988;6.020;2024-01-06T12:30:27;4.20;99.90
39067;DHT22;24821;51.988;6.020;2024-01-06T12:32:53;4.20;99.90
39067;DHT22;24821;51.988;6.020;2024-01-06T12:35:19;4.20;99.90
39067;DHT22;24821;51.988;6.020;2024-01-06T12:37:45;4.20;99.90
39067;DHT22;24821;51.988;6.020;2024-01-06T12:40:14;4.20;99.90
39067;DHT22;24821;51.988;6.020;2024-01-06T12:42:42;4.20;99.90
39067;DHT22;24821;51.988;6.020;2024-01-06T12:45:08;4.10;99.90
39067;DHT22;24821;51.988;6.020;2024-01-06T12:47:35;4.10;99.90
39067;DHT22;24821;51.988;6.020;2024-01-06T12:50:00;4.10;99.90
39067;DHT22;24821;51.988;6.020;2024-01-06T12:52:26;4.10;99.90
39067;DHT22;24821;51.988;6.020;2024-01-06T12:54:51;4.10;99.90
39067;DHT22;24821;51.988;6.020;2024-01-06T12:57:17;4.10;99.90
39067;DHT22;24821;51.988;6.020;2024-01-06T12:59:43;4.10;99.90
39067;DHT22;24821;51.988;6.020;2024-01-06T13:02:09;4.10;99.90
39067;DHT22;24821;51.988;6.020;2024-01-06T13:04:34;4.10;99.90
39067;DHT22;24821;51.988;6.020;2024-01-06T13:07:00;4.10;99.90
39067;DHT22;24821;51.988;6.020;2024-01-06T13:09:26;4.10;99.90
39067;DHT22;24821;51.988;6.020;2024-01-06T13:11:52;4.10;99.90
39067;DHT22;24821;51.988;6.020;2024-01-06T13:14:21;4.20;99.90
39067;DHT22;24821;51.988;6.020;2024-01-06T13:16:46;4.20;99.90
39067;DHT22;24821;51.988;6.020;2024-01-06T13:19:11;4.20;99.90
39067;DHT22;24821;51.988;6.020;2024-01-06T13:21:37;4.20;99.90
39067;DHT22;24821;51.988;6.020;2024-01-06T13:24:05;4.20;99.90
39067;DHT22;24821;51.988;6.020;2024-01-06T13:26:31;4.20;99.90
39067;DHT22;24821;51.988;6.020;2024-01-06T13:28:56;4.20;99.90
39067;DHT22;24821;51.988;6.020;2024-01-06T13:31:22;4.20;99.90
39067;DHT22;24821;51.988;6.020;2024-01-06T13:33:49;4.20;99.90
39067;DHT22;24821;51.988;6.020;2024-01-06T13:36:17;4.20;99.90
39067;DHT22;24821;51.988;6.020;2024-01-06T13:38:43;4.20;99.90
39067;DHT22;24821;51.988;6.020;2024-01-06T13:41:09;4.20;99.90
39067;DHT22;24821;51.988;6.020;2024-01-06T13:43:34;4.20;99.90
39067;DHT22;24821;51.988;6.020;2024-01-06T13:46:00;4.20;99.90
39067;DHT22;24821;51.988;6.020;2024-01-06T13:48:25;4.20;99.90
39067;DHT22;24821;51.988;6.020;2024-01-06T13:50:51;4.20;99.90
39067;DHT22;24821;51.988;6.020;2024-01-06T13:53:16;4.10;99.90
39067;DHT22;24821;51.988;6.020;2024-01-06T13:55:42;4.10;99.90
39067;DHT22;24821;51.988;6.020;2024-01-06T13:58:07;4.10;99.90
39067;DHT22;24821;51.988;6.020;2024-01-06T14:00:35;4.10;99.90
39067;DHT22;24821;51.988;6.020;2024-01-06T14:03:00;4.10;99.90
39067;DHT22;24821;51.988;6.020;2024-01-06T14:05:26;4.10;99.90
39067;DHT22;24821;51.988;6.020;2024-01-06T14:07:52;4.00;99.90
39067;DHT22;24821;51.988;6.020;2024-01-06T14:10:17;4.10;99.90
39067;DHT22;24821;51.988;6.020;2024-01-06T14:12:43;4.10;99.90
39067;DHT22;24821;51.988;6.020;2024-01-06T14:15:08;4.10;99.90
39067;DHT22;24821;51.988;6.020;2024-01-06T14:17:34;4.00;99.90
39067;DHT22;24821;51.988;6.020;2024-01-06T14:19:59;4.00;99.90
39067;DHT22;24821;51.988;6.020;2024-01-06T14:22:25;4.00;99.90
39067;DHT22;24821;51.988;6.020;2024-01-06T14:24:51;4.10;99.90
39067;DHT22;24821;51.988;6.020;2024-01-06T14:27:17;4.10;99.90
39067;DHT22;24821;51.988;6.020;2024-01-06T14:29:42;4.10;99.90
39067;DHT22;24821;51.988;6.020;2024-01-06T14:32:08;4.10;99.90
39067;DHT22;24821;51.988;6.020;2024-01-06T14:34:34;4.10;99.90
39067;DHT22;24821;51.988;6.020;2024-01-06T14:36:59;4.10;99.90
39067;DHT22;24821;51.988;6.020;2024-01-06T14:39:24;4.10;99.90
39067;DHT22;24821;51.988;6.020;2024-01-06T14:41:50;4.10;99.90
39067;DHT22;24821;51.988;6.020;2024-01-06T14:44:17;4.20;99.90
39067;DHT22;24821;51.988;6.020;2024-01-06T14:46:45;4.10;99.90
39067;DHT22;24821;51.988;6.020;2024-01-06T14:49:11;4.10;99.90
39067;DHT22;24821;51.988;6.020;2024-01-06T14:51:36;4.10;99.90
39067;DHT22;24821;51.988;6.020;2024-01-06T14:54:01;4.00;99.90
39067;DHT22;24821;51.988;6.020;2024-01-06T14:56:27;4.00;99.90
39067;DHT22;24821;51.988;6.020;2024-01-06T14:58:52;4.00;99.90
39067;DHT22;24821;51.988;6.020;2024-01-06T15:01:18;4.00;99.90
39067;DHT22;24821;51.988;6.020;2024-01-06T15:03:43;4.00;99.90
39067;DHT22;24821;51.988;6.020;2024-01-06T15:06:09;3.90;99.90
39067;DHT22;24821;51.988;6.020;2024-01-06T15:08:34;3.90;99.90
39067;DHT22;24821;51.988;6.020;2024-01-06T15:11:00;3.90;99.90
39067;DHT22;24821;51.988;6.020;2024-01-06T15:13:25;3.90;99.90
39067;DHT22;24821;51.988;6.020;2024-01-06T15:15:51;3.90;99.90
39067;DHT22;24821;51.988;6.020;2024-01-06T15:18:17;3.90;99.90
39067;DHT22;24821;51.988;6.020;2024-01-06T15:20:45;3.90;99.90
39067;DHT22;24821;51.988;6.020;2024-01-06T15:23:11;3.90;99.90
39067;DHT22;24821;51.988;6.020;2024-01-06T15:25:37;4.00;99.90
39067;DHT22;24821;51.988;6.020;2024-01-06T15:28:02;3.90;99.90
39067;DHT22;24821;51.988;6.020;2024-01-06T15:30:28;3.90;99.90
39067;DHT22;24821;51.988;6.020;2024-01-06T15:32:54;3.90;99.90
39067;DHT22;24821;51.988;6.020;2024-01-06T15:35:19;3.90;99.90
39067;DHT22;24821;51.988;6.020;2024-01-06T15:37:45;3.90;99.90